Time;durP1;ratioP1;P1;durP2;ratioP2;P2;SDS_P1;SDS_P2;PMS_P1;PMS_P2;Temp;Humidity;BMP_temperature;BMP_pressure;BME280_temperature;BME280_humidity;BME280_pressure;Samples;Min_cycle;Max_cycle;Signal;HPM_P1;HPM_P2
2023/12/16 00:01:55;;;;;;;1999.90;999.90;;;8.00;99.90;;;;;;5047453;28;20441;-75
2023/12/16 00:04:22;;;;;;;1999.90;999.90;;;8.00;99.90;;;;;;5049097;28;20440;-73
2023/12/16 00:06:50;;;;;;;1999.90;999.90;;;8.00;99.90;;;;;;5043248;28;20911;-75
2023/12/16 00:09:17;;;;;;;1999.90;999.90;;;8.00;99.90;;;;;;5047988;28;20421;-75
2023/12/16 00:11:44;;;;;;;1999.90;999.90;;;8.00;99.90;;;;;;5047553;28;20409;-74
2023/12/16 00:14:11;;;;;;;1999.90;999.90;;;8.00;99.90;;;;;;5048337;28;20418;-75
2023/12/16 00:16:37;;;;;;;1999.90;999.90;;;8.00;99.90;;;;;;5047952;28;20425;-75
2023/12/16 00:19:05;;;;;;;1999.90;999.90;;;8.10;99.90;;;;;;5046912;28;20961;-75
2023/12/16 00:21:31;;;;;;;1999.90;999.90;;;8.10;99.90;;;;;;5049494;28;20451;-76
2023/12/16 00:23:59;;;;;;;1999.90;999.90;;;8.10;99.90;;;;;;5049937;28;20960;-75
2023/12/16 00:26:26;;;;;;;1999.90;999.90;;;8.00;99.90;;;;;;5050050;28;20405;-75
2023/12/16 00:28:52;;;;;;;1999.90;999.90;;;8.10;99.90;;;;;;5049766;28;20462;-75
2023/12/16 00:31:19;;;;;;;1999.90;999.90;;;8.00;99.90;;;;;;5049707;28;20463;-75
2023/12/16 00:33:46;;;;;;;1999.90;999.90;;;8.10;99.90;;;;;;5048315;28;20428;-76
2023/12/16 00:36:13;;;;;;;1999.90;999.90;;;8.10;99.90;;;;;;5050028;28;20525;-75
2023/12/16 00:38:39;;;;;;;1999.90;999.90;;;8.00;99.90;;;;;;5042262;28;20413;-75
2023/12/16 00:41:07;;;;;;;1999.90;999.90;;;8.00;99.90;;;;;;5049839;28;20470;-75
2023/12/16 00:43:34;;;;;;;1999.90;999.90;;;8.00;99.90;;;;;;5049561;28;20420;-76
2023/12/16 00:46:01;;;;;;;1999.90;999.90;;;8.10;99.90;;;;;;5049845;28;20413;-75
2023/12/16 00:48:27;;;;;;;1999.90;999.90;;;8.00;99.90;;;;;;5048751;28;21001;-75
2023/12/16 00:50:54;;;;;;;1999.90;999.90;;;8.00;99.90;;;;;;5049810;28;20405;-75
2023/12/16 00:53:21;;;;;;;1999.90;999.90;;;8.10;99.90;;;;;;5050134;28;20500;-75
2023/12/16 00:55:48;;;;;;;1999.90;999.90;;;8.10;99.90;;;;;;5049650;28;20504;-75
2023/12/16 00:58:16;;;;;;;1999.90;999.90;;;8.10;99.90;;;;;;5049229;28;20433;-75
2023/12/16 01:00:43;;;;;;;1999.90;999.90;;;8.10;99.90;;;;;;5049728;28;20417;-76
2023/12/16 01:03:09;;;;;;;1999.90;999.90;;;8.10;99.90;;;;;;5045970;28;20512;-75
2023/12/16 01:05:38;;;;;;;1999.90;999.90;;;8.10;99.90;;;;;;5049578;28;20413;-75
2023/12/16 01:08:05;;;;;;;1999.90;999.90;;;8.10;99.90;;;;;;5050330;28;20482;-76
2023/12/16 01:10:31;;;;;;;1999.90;999.90;;;8.10;99.90;;;;;;5053262;28;20413;-76
2023/12/16 01:12:58;;;;;;;1999.90;999.90;;;8.10;99.90;;;;;;5053223;28;20417;-76
2023/12/16 01:15:26;;;;;;;1999.90;999.90;;;8.10;99.90;;;;;;5052605;28;20421;-75
2023/12/16 01:17:53;;;;;;;1999.90;999.90;;;8.00;99.90;;;;;;5047697;28;20424;-73
2023/12/16 01:20:19;;;;;;;1999.90;999.90;;;8.10;99.90;;;;;;5053266;28;20413;-77
2023/12/16 01:22:46;;;;;;;1999.90;999.90;;;8.10;99.90;;;;;;5053122;28;20820;-75
2023/12/16 01:25:13;;;;;;;1999.90;999.90;;;8.20;99.90;;;;;;5053137;28;20942;-75
2023/12/16 01:27:39;;;;;;;1999.90;999.90;;;8.20;99.90;;;;;;5048126;28;20406;-75
2023/12/16 01:30:07;;;;;;;1999.90;999.90;;;8.20;99.90;;;;;;5052834;28;20409;-75
2023/12/16 01:32:35;;;;;;;1999.90;999.90;;;8.20;99.90;;;;;;5050631;28;21004;-76
2023/12/16 01:35:02;;;;;;;1999.90;999.90;;;8.20;99.90;;;;;;5053258;28;20439;-76
2023/12/16 01:37:29;;;;;;;1999.90;999.90;;;8.20;99.90;;;;;;5053749;28;20946;-75
2023/12/16 01:39:56;;;;;;;1999.90;999.90;;;8.20;99.90;;;;;;5052875;28;20439;-76
2023/12/16 01:42:22;;;;;;;1999.90;999.90;;;8.20;99.90;;;;;;5053024;28;21100;-75
2023/12/16 01:44:49;;;;;;;1999.90;999.90;;;8.20;99.90;;;;;;5049849;28;20433;-75
2023/12/16 01:47:17;;;;;;;1999.90;999.90;;;8.10;99.90;;;;;;5054265;28;20811;-75
2023/12/16 01:49:47;;;;;;;1999.90;999.90;;;8.10;99.90;;;;;;5054292;28;20441;-75
2023/12/16 01:52:14;;;;;;;1999.90;999.90;;;8.10;99.90;;;;;;5054537;28;20925;-76
2023/12/16 01:54:41;;;;;;;1999.90;999.90;;;8.10;99.90;;;;;;5053482;28;20409;-78
2023/12/16 01:57:08;;;;;;;1999.90;999.90;;;8.10;99.90;;;;;;5050064;28;20437;-76
2023/12/16 01:59:35;;;;;;;1999.90;999.90;;;8.10;99.90;;;;;;5053829;28;20451;-76
2023/12/16 02:02:02;;;;;;;1999.90;999.90;;;8.10;99.90;;;;;;5053592;28;21145;-75
2023/12/16 02:04:29;;;;;;;1999.90;999.90;;;8.10;99.90;;;;;;5052593;28;20409;-75
2023/12/16 02:06:57;;;;;;;1999.90;999.90;;;8.10;99.90;;;;;;5050920;28;20409;-76
2023/12/16 02:09:24;;;;;;;1999.90;999.90;;;8.20;99.90;;;;;;5051449;28;20416;-75
2023/12/16 02:11:52;;;;;;;1999.90;999.90;;;8.20;99.90;;;;;;5050527;28;20830;-74
2023/12/16 02:14:19;;;;;;;1999.90;999.90;;;8.20;99.90;;;;;;5052148;28;20414;-74
2023/12/16 02:16:46;;;;;;;1999.90;999.90;;;8.20;99.90;;;;;;5052341;28;20430;-74
2023/12/16 02:19:16;;;;;;;1999.90;999.90;;;8.20;99.90;;;;;;5051349;28;20471;-74
2023/12/16 02:21:43;;;;;;;1999.90;999.90;;;8.30;99.90;;;;;;5045740;28;20414;-74
2023/12/16 02:24:11;;;;;;;1999.90;999.90;;;8.30;99.90;;;;;;5052417;28;20470;-74
2023/12/16 02:26:37;;;;;;;1999.90;999.90;;;8.20;99.90;;;;;;5050698;28;20977;-74
2023/12/16 02:29:04;;;;;;;1999.90;999.90;;;8.20;99.90;;;;;;5051989;28;20443;-74
2023/12/16 02:31:31;;;;;;;1999.90;999.90;;;8.30;99.90;;;;;;5052122;28;20417;-74
2023/12/16 02:33:57;;;;;;;1999.90;999.90;;;8.30;99.90;;;;;;5052743;28;20490;-77
2023/12/16 02:36:25;;;;;;;1999.90;999.90;;;8.20;99.90;;;;;;5052733;28;20414;-74
2023/12/16 02:38:51;;;;;;;1999.90;999.90;;;8.30;99.90;;;;;;5051718;28;20433;-74
2023/12/16 02:41:21;;;;;;;1999.90;999.90;;;8.30;99.90;;;;;;5049190;28;20437;-74
2023/12/16 02:43:48;;;;;;;1999.90;999.90;;;8.30;99.90;;;;;;5052018;28;20449;-74
2023/12/16 02:46:14;;;;;;;1999.90;999.90;;;8.20;99.90;;;;;;5052663;28;20410;-75
2023/12/16 02:48:41;;;;;;;1999.90;999.90;;;8.20;99.90;;;;;;5052968;28;20425;-76
2023/12/16 02:51:17;;;;;;;1999.90;999.90;;;8.20;99.90;;;;;;5052681;28;20409;-75
2023/12/16 02:53:43;;;;;;;1999.90;999.90;;;8.20;99.90;;;;;;5051971;28;20454;-75
2023/12/16 02:56:10;;;;;;;1999.90;999.90;;;8.20;99.90;;;;;;5052227;28;20932;-75
2023/12/16 02:58:39;;;;;;;1999.90;999.90;;;8.10;99.90;;;;;;5052798;28;20710;-76
2023/12/16 03:01:06;;;;;;;1999.90;999.90;;;8.10;99.90;;;;;;5051845;28;20417;-75
2023/12/16 03:03:33;;;;;;;1999.90;999.90;;;8.10;99.90;;;;;;5052704;28;20433;-76
2023/12/16 03:06:05;;;;;;;1999.90;999.90;;;8.10;99.90;;;;;;5052630;28;20417;-76
2023/12/16 03:08:31;;;;;;;1999.90;999.90;;;8.10;99.90;;;;;;5050967;28;20967;-74
2023/12/16 03:10:58;;;;;;;1999.90;999.90;;;8.10;99.90;;;;;;5051254;28;20858;-75
2023/12/16 03:13:25;;;;;;;1999.90;999.90;;;8.10;99.90;;;;;;5052013;28;20948;-76
2023/12/16 03:15:53;;;;;;;1999.90;999.90;;;8.00;99.90;;;;;;5050509;28;20418;-75
2023/12/16 03:18:20;;;;;;;1999.90;999.90;;;8.20;99.90;;;;;;5049317;28;20429;-74
2023/12/16 03:20:46;;;;;;;1999.90;999.90;;;8.10;99.90;;;;;;5052601;28;20459;-70
2023/12/16 03:23:13;;;;;;;1999.90;999.90;;;8.10;99.90;;;;;;5052646;28;20413;-75
2023/12/16 03:25:42;;;;;;;1999.90;999.90;;;8.10;99.90;;;;;;5052506;28;20826;-75
2023/12/16 03:28:09;;;;;;;1999.90;999.90;;;8.00;99.90;;;;;;5052377;28;20551;-75
2023/12/16 03:30:37;;;;;;;1999.90;999.90;;;8.00;99.90;;;;;;5051153;28;20441;-75
2023/12/16 03:33:05;;;;;;;1999.90;999.90;;;8.00;99.90;;;;;;5052011;28;20973;-75
2023/12/16 03:35:31;;;;;;;1999.90;999.90;;;8.10;99.90;;;;;;5052172;28;20417;-75
2023/12/16 03:38:00;;;;;;;1999.90;999.90;;;8.10;99.90;;;;;;5052861;28;20429;-74
2023/12/16 03:40:27;;;;;;;1999.90;999.90;;;8.10;99.90;;;;;;5051939;28;20467;-74
2023/12/16 03:42:54;;;;;;;1999.90;999.90;;;8.00;99.90;;;;;;5052186;28;20409;-75
2023/12/16 03:45:20;;;;;;;1999.90;999.90;;;8.10;99.90;;;;;;5050703;28;20476;-75
2023/12/16 03:47:47;;;;;;;1999.90;999.90;;;8.10;99.90;;;;;;5052688;28;20471;-75
2023/12/16 03:50:15;;;;;;;1999.90;999.90;;;8.10;99.90;;;;;;5051890;28;20413;-74
2023/12/16 03:52:42;;;;;;;1999.90;999.90;;;8.00;99.90;;;;;;5050479;28;20463;-75
2023/12/16 03:55:09;;;;;;;1999.90;999.90;;;8.00;99.90;;;;;;5051695;28;20459;-75
2023/12/16 03:57:35;;;;;;;1999.90;999.90;;;8.00;99.90;;;;;;5051844;28;20433;-75
2023/12/16 04:00:02;;;;;;;1999.90;999.90;;;8.00;99.90;;;;;;5051412;28;20429;-76
2023/12/16 04:02:29;;;;;;;1999.90;999.90;;;8.10;99.90;;;;;;5051584;28;20479;-74
2023/12/16 04:04:55;;;;;;;1999.90;999.90;;;8.00;99.90;;;;;;5051925;28;20463;-76
2023/12/16 04:07:24;;;;;;;1999.90;999.90;;;8.00;99.90;;;;;;5051527;28;20409;-74
2023/12/16 04:09:50;;;;;;;1999.90;999.90;;;8.00;99.90;;;;;;5051606;28;20417;-75
2023/12/16 04:12:17;;;;;;;1999.90;999.90;;;8.00;99.90;;;;;;5051848;28;20417;-75
2023/12/16 04:14:44;;;;;;;1999.90;999.90;;;8.00;99.90;;;;;;5047573;28;20429;-75
2023/12/16 04:17:10;;;;;;;1999.90;999.90;;;8.00;99.90;;;;;;5051499;28;20521;-77
2023/12/16 04:19:38;;;;;;;1999.90;999.90;;;8.00;99.90;;;;;;5051215;28;20535;-77
2023/12/16 04:22:05;;;;;;;1999.90;999.90;;;8.00;99.90;;;;;;5050297;28;20409;-73
2023/12/16 04:24:33;;;;;;;1999.90;999.90;;;8.10;99.90;;;;;;5050527;28;20488;-74
2023/12/16 04:27:00;;;;;;;1999.90;999.90;;;8.10;99.90;;;;;;5050879;28;20475;-76
2023/12/16 04:29:26;;;;;;;1999.90;999.90;;;8.00;99.90;;;;;;5049930;28;20429;-76
2023/12/16 04:31:53;;;;;;;1999.90;999.90;;;8.00;99.90;;;;;;5051278;28;20764;-73
2023/12/16 04:34:20;;;;;;;1999.90;999.90;;;7.90;99.90;;;;;;5051878;28;20417;-77
2023/12/16 04:36:46;;;;;;;1999.90;999.90;;;8.00;99.90;;;;;;5051667;28;20417;-78
2023/12/16 04:39:13;;;;;;;1999.90;999.90;;;8.00;99.90;;;;;;5051721;28;20434;-75
2023/12/16 04:41:41;;;;;;;1999.90;999.90;;;8.00;99.90;;;;;;5050659;28;20420;-74
2023/12/16 04:44:08;;;;;;;1999.90;999.90;;;8.00;99.90;;;;;;5050493;28;20409;-75
2023/12/16 04:46:35;;;;;;;1999.90;999.90;;;7.90;99.90;;;;;;5050588;28;20413;-73
2023/12/16 04:49:02;;;;;;;1999.90;999.90;;;8.00;99.90;;;;;;5050910;28;20422;-75
2023/12/16 04:51:28;;;;;;;1999.90;999.90;;;8.00;99.90;;;;;;5050704;28;20504;-74
2023/12/16 04:53:57;;;;;;;1999.90;999.90;;;8.00;99.90;;;;;;5050578;28;20899;-77
2023/12/16 04:56:23;;;;;;;1999.90;999.90;;;8.00;99.90;;;;;;5050018;28;20504;-75
2023/12/16 04:58:51;;;;;;;1999.90;999.90;;;8.00;99.90;;;;;;5049615;28;20436;-74
2023/12/16 05:01:18;;;;;;;1999.90;999.90;;;7.90;99.90;;;;;;5049696;28;20942;-74
2023/12/16 05:03:45;;;;;;;1999.90;999.90;;;7.90;99.90;;;;;;5049808;28;20458;-74
2023/12/16 05:06:11;;;;;;;1999.90;999.90;;;7.90;99.90;;;;;;5049374;28;20417;-72
2023/12/16 05:08:38;;;;;;;1999.90;999.90;;;7.90;99.90;;;;;;5049672;28;20475;-74
2023/12/16 05:11:04;;;;;;;1999.90;999.90;;;7.90;99.90;;;;;;5047809;28;20436;-74
2023/12/16 05:13:31;;;;;;;1999.90;999.90;;;7.90;99.90;;;;;;5049973;28;21041;-74
2023/12/16 05:15:59;;;;;;;1999.90;999.90;;;8.00;99.90;;;;;;5049800;28;20409;-74
2023/12/16 05:18:26;;;;;;;1999.90;999.90;;;8.00;99.90;;;;;;5049040;28;20475;-75
2023/12/16 05:20:52;;;;;;;1999.90;999.90;;;8.00;99.90;;;;;;5049127;28;21120;-75
2023/12/16 05:23:19;;;;;;;1999.90;999.90;;;8.00;99.90;;;;;;5049537;28;20413;-75
2023/12/16 05:25:46;;;;;;;1999.90;999.90;;;8.00;99.90;;;;;;5048499;28;20429;-75
2023/12/16 05:28:12;;;;;;;1999.90;999.90;;;8.00;99.90;;;;;;5049044;28;20474;-72
2023/12/16 05:30:39;;;;;;;1999.90;999.90;;;8.00;99.90;;;;;;5049737;28;20409;-75
2023/12/16 05:33:07;;;;;;;1999.90;999.90;;;8.00;99.90;;;;;;5049059;28;20413;-75
2023/12/16 05:35:34;;;;;;;1999.90;999.90;;;7.90;99.90;;;;;;5049244;28;20896;-75
2023/12/16 05:38:00;;;;;;;1999.90;999.90;;;7.90;99.90;;;;;;5049791;28;20429;-75
2023/12/16 05:40:27;;;;;;;1999.90;999.90;;;7.90;99.90;;;;;;5048961;28;20429;-75
2023/12/16 05:42:54;;;;;;;1999.90;999.90;;;8.00;99.90;;;;;;5049646;28;20421;-74
2023/12/16 05:45:20;;;;;;;1999.90;999.90;;;7.90;99.90;;;;;;5050174;28;20417;-75
2023/12/16 05:47:46;;;;;;;1999.90;999.90;;;8.00;99.90;;;;;;5049821;28;20567;-74
2023/12/16 05:50:14;;;;;;;1999.90;999.90;;;7.90;99.90;;;;;;5049035;28;20421;-75
2023/12/16 05:52:41;;;;;;;1999.90;999.90;;;7.80;99.90;;;;;;5044224;28;20409;-75
2023/12/16 05:55:08;;;;;;;1999.90;999.90;;;7.80;99.90;;;;;;5052148;28;20432;-75
2023/12/16 05:57:35;;;;;;;1999.90;999.90;;;7.80;99.90;;;;;;5050153;28;20436;-75
2023/12/16 06:00:02;;;;;;;1999.90;999.90;;;7.80;99.90;;;;;;5053760;28;20458;-72
2023/12/16 06:02:27;;;;;;;1999.90;999.90;;;7.80;99.90;;;;;;5053532;28;20895;-75
2023/12/16 06:04:54;;;;;;;1999.90;999.90;;;8.00;99.90;;;;;;5053997;28;20455;-75
2023/12/16 06:07:22;;;;;;;1999.90;999.90;;;8.00;99.90;;;;;;5051934;28;20986;-76
2023/12/16 06:09:49;;;;;;;1999.90;999.90;;;7.90;99.90;;;;;;5050908;28;20410;-75
2023/12/16 06:12:16;;;;;;;1999.90;999.90;;;7.90;99.90;;;;;;5054438;28;20421;-74
2023/12/16 06:14:43;;;;;;;1999.90;999.90;;;7.90;99.90;;;;;;5053774;28;20468;-75
2023/12/16 06:17:09;;;;;;;1999.90;999.90;;;7.90;99.90;;;;;;5053161;28;20491;-76
2023/12/16 06:19:36;;;;;;;1999.90;999.90;;;7.90;99.90;;;;;;5052033;28;20437;-75
2023/12/16 06:22:03;;;;;;;1999.90;999.90;;;8.00;99.90;;;;;;5051404;28;20467;-74
2023/12/16 06:24:31;;;;;;;1999.90;999.90;;;8.00;99.90;;;;;;5051892;28;20899;-75
2023/12/16 06:26:57;;;;;;;1999.90;999.90;;;8.00;99.90;;;;;;5052518;28;20930;-75
2023/12/16 06:29:24;;;;;;;1999.90;999.90;;;7.90;99.90;;;;;;5053637;28;20436;-75
2023/12/16 06:31:51;;;;;;;1999.90;999.90;;;7.90;99.90;;;;;;5053042;28;20525;-74
2023/12/16 06:34:18;;;;;;;1999.90;999.90;;;7.90;99.90;;;;;;5052139;28;20414;-75
2023/12/16 06:36:45;;;;;;;1999.90;999.90;;;7.90;99.90;;;;;;5050044;28;20433;-74
2023/12/16 06:39:11;;;;;;;1999.90;999.90;;;7.80;99.90;;;;;;5053501;28;20429;-75
2023/12/16 06:41:40;;;;;;;1999.90;999.90;;;7.80;99.90;;;;;;5053732;28;20414;-76
2023/12/16 06:44:06;;;;;;;1999.90;999.90;;;7.80;99.90;;;;;;5053472;28;20458;-76
2023/12/16 06:46:33;;;;;;;1999.90;999.90;;;7.80;99.90;;;;;;5053885;28;20860;-76
2023/12/16 06:49:00;;;;;;;1999.90;999.90;;;7.60;99.90;;;;;;5052199;28;20409;-75
2023/12/16 06:51:26;;;;;;;1999.90;999.90;;;7.90;99.90;;;;;;5047430;28;20493;-75
2023/12/16 06:53:53;;;;;;;1999.90;999.90;;;7.90;99.90;;;;;;5051513;28;20417;-74
2023/12/16 06:56:20;;;;;;;1999.90;999.90;;;7.80;99.90;;;;;;5051381;28;20417;-76
2023/12/16 06:58:48;;;;;;;1999.90;999.90;;;7.90;99.90;;;;;;5051750;28;20433;-75
2023/12/16 07:01:15;;;;;;;1999.90;999.90;;;7.90;99.90;;;;;;5052703;28;20422;-75
2023/12/16 07:03:41;;;;;;;1999.90;999.90;;;7.90;99.90;;;;;;5050526;28;20405;-76
2023/12/16 07:06:09;;;;;;;1999.90;999.90;;;7.90;99.90;;;;;;5050162;28;20482;-77
2023/12/16 07:08:36;;;;;;;1999.90;999.90;;;7.90;99.90;;;;;;5052448;28;20449;-75
2023/12/16 07:11:04;;;;;;;1999.90;999.90;;;7.90;99.90;;;;;;5053171;28;20417;-76
2023/12/16 07:13:31;;;;;;;1999.90;999.90;;;7.80;99.90;;;;;;5052156;28;20424;-76
2023/12/16 07:16:03;;;;;;;1999.90;999.90;;;7.90;99.90;;;;;;5051341;28;20492;-75
2023/12/16 07:18:30;;;;;;;1999.90;999.90;;;7.90;99.90;;;;;;5050813;28;20436;-76
2023/12/16 07:20:56;;;;;;;1999.90;999.90;;;7.90;99.90;;;;;;5046498;28;20804;-76
2023/12/16 07:23:23;;;;;;;1999.90;999.90;;;7.90;99.90;;;;;;5050924;28;20459;-76
2023/12/16 07:25:50;;;;;;;1999.90;999.90;;;7.90;99.90;;;;;;5051284;28;20887;-75
2023/12/16 07:28:17;;;;;;;1999.90;999.90;;;7.90;99.90;;;;;;5052224;28;20440;-74
2023/12/16 07:30:43;;;;;;;1999.90;999.90;;;7.90;99.90;;;;;;5052624;28;20416;-76
2023/12/16 07:33:11;;;;;;;1999.90;999.90;;;7.80;99.90;;;;;;5050484;28;20447;-75
2023/12/16 07:35:39;;;;;;;1999.90;999.90;;;7.80;99.90;;;;;;5050167;28;20839;-76
2023/12/16 07:38:07;;;;;;;1999.90;999.90;;;7.80;99.90;;;;;;5049581;28;20470;-77
2023/12/16 07:40:35;;;;;;;1999.90;999.90;;;7.80;99.90;;;;;;5050251;28;20417;-76
2023/12/16 07:43:01;;;;;;;1999.90;999.90;;;7.90;99.90;;;;;;5050434;28;20413;-76
2023/12/16 07:45:28;;;;;;;1999.90;999.90;;;7.90;99.90;;;;;;5051252;28;20428;-76
2023/12/16 07:47:55;;;;;;;1999.90;999.90;;;8.00;99.90;;;;;;5050797;28;20459;-74
2023/12/16 07:50:23;;;;;;;1999.90;999.90;;;8.00;99.90;;;;;;5048059;28;20413;-73
2023/12/16 07:52:50;;;;;;;1999.90;999.90;;;8.00;99.90;;;;;;5049333;28;20424;-74
2023/12/16 07:55:16;;;;;;;1999.90;999.90;;;7.90;99.90;;;;;;5041015;28;20482;-76
2023/12/16 07:57:43;;;;;;;1999.90;999.90;;;7.90;99.90;;;;;;5050154;28;20421;-76
2023/12/16 08:00:11;;;;;;;1999.90;999.90;;;7.80;99.90;;;;;;5049866;28;20941;-75
2023/12/16 08:02:37;;;;;;;1999.90;999.90;;;7.80;99.90;;;;;;5044405;28;21023;-76
2023/12/16 08:05:05;;;;;;;1999.90;999.90;;;7.90;99.90;;;;;;5048679;28;20409;-75
2023/12/16 08:07:33;;;;;;;1999.90;999.90;;;8.00;99.90;;;;;;5050161;28;20514;-75
2023/12/16 08:09:59;;;;;;;1999.90;999.90;;;7.90;99.90;;;;;;5051698;28;20846;-76
2023/12/16 08:12:26;;;;;;;1999.90;999.90;;;7.90;99.90;;;;;;5051439;28;20818;-76
2023/12/16 08:14:53;;;;;;;1999.90;999.90;;;7.90;99.90;;;;;;5051230;28;20824;-76
2023/12/16 08:17:19;;;;;;;1999.90;999.90;;;8.00;99.90;;;;;;5048606;28;20930;-76
2023/12/16 08:19:47;;;;;;;1999.90;999.90;;;8.00;99.90;;;;;;5046461;28;20429;-75
2023/12/16 08:22:14;;;;;;;1999.90;999.90;;;7.90;99.90;;;;;;5056476;28;20479;-75
2023/12/16 08:24:42;;;;;;;1999.90;999.90;;;7.90;99.90;;;;;;5049858;28;20441;-76
2023/12/16 08:27:09;;;;;;;1999.90;999.90;;;8.00;99.90;;;;;;5052999;28;20413;-75
2023/12/16 08:29:36;;;;;;;1999.90;999.90;;;8.10;99.90;;;;;;5052939;28;20418;-77
2023/12/16 08:32:03;;;;;;;1999.90;999.90;;;8.10;99.90;;;;;;5054475;28;20445;-77
2023/12/16 08:34:31;;;;;;;1999.90;999.90;;;8.00;99.90;;;;;;5049333;28;21020;-77
2023/12/16 08:36:58;;;;;;;1999.90;999.90;;;8.10;99.90;;;;;;5050456;28;20760;-77
2023/12/16 08:39:25;;;;;;;1999.90;999.90;;;8.00;99.90;;;;;;5047592;28;20433;-77
2023/12/16 08:41:53;;;;;;;1999.90;999.90;;;8.20;99.90;;;;;;5051966;28;20459;-76
2023/12/16 08:44:20;;;;;;;1999.90;999.90;;;8.10;99.90;;;;;;5043232;28;20433;-73
2023/12/16 08:46:47;;;;;;;1999.90;999.90;;;8.00;99.90;;;;;;5048325;28;20428;-76
2023/12/16 08:49:14;;;;;;;1999.90;999.90;;;8.30;99.90;;;;;;5050510;28;20486;-76
2023/12/16 08:51:40;;;;;;;1999.90;999.90;;;8.10;99.90;;;;;;5046264;28;20437;-77
2023/12/16 08:54:07;;;;;;;1999.90;999.90;;;8.10;99.90;;;;;;5051864;28;20435;-77
2023/12/16 08:56:34;;;;;;;1999.90;999.90;;;8.10;99.90;;;;;;5051785;28;20450;-75
2023/12/16 08:59:02;;;;;;;1999.90;999.90;;;8.10;99.90;;;;;;5052299;28;20482;-76
2023/12/16 09:01:29;;;;;;;1999.90;999.90;;;8.10;99.90;;;;;;5049468;28;20413;-73
2023/12/16 09:03:56;;;;;;;1999.90;999.90;;;8.10;99.90;;;;;;5049239;28;20575;-75
2023/12/16 09:06:24;;;;;;;1999.90;999.90;;;8.00;99.90;;;;;;5049230;28;20501;-73
2023/12/16 09:08:50;;;;;;;1999.90;999.90;;;7.90;99.90;;;;;;5042468;28;20424;-75
2023/12/16 09:11:17;;;;;;;1999.90;999.90;;;7.80;99.90;;;;;;5049214;28;20421;-75
2023/12/16 09:13:44;;;;;;;1999.90;999.90;;;7.70;99.90;;;;;;5049347;28;20494;-75
2023/12/16 09:16:12;;;;;;;1999.90;999.90;;;7.70;99.90;;;;;;5051393;28;20500;-73
2023/12/16 09:18:39;;;;;;;1999.90;999.90;;;7.80;99.90;;;;;;5051022;28;20819;-76
2023/12/16 09:21:06;;;;;;;1999.90;999.90;;;7.90;99.90;;;;;;5051367;28;20413;-75
2023/12/16 09:23:34;;;;;;;1999.90;999.90;;;8.00;99.90;;;;;;5044845;28;20441;-76
2023/12/16 09:26:01;;;;;;;1999.90;999.90;;;8.20;99.90;;;;;;5050047;28;20465;-75
2023/12/16 09:28:28;;;;;;;1999.90;999.90;;;8.30;99.90;;;;;;5051293;28;20413;-76
2023/12/16 09:30:55;;;;;;;1999.90;999.90;;;8.60;99.90;;;;;;5049992;28;20419;-75
2023/12/16 09:33:23;;;;;;;1999.90;999.90;;;8.70;99.90;;;;;;5051728;28;20409;-75
2023/12/16 09:35:49;;;;;;;1999.90;999.90;;;8.70;99.90;;;;;;5055318;28;20464;-72
2023/12/16 09:38:16;;;;;;;1999.90;999.90;;;8.80;99.90;;;;;;5052775;28;20431;-75
2023/12/16 09:40:43;;;;;;;1999.90;999.90;;;8.90;99.90;;;;;;5047846;28;20433;-73
2023/12/16 09:43:16;;;;;;;1999.90;999.90;;;9.00;99.90;;;;;;5053072;28;20522;-76
2023/12/16 09:45:46;;;;;;;1999.90;999.90;;;9.20;99.90;;;;;;5049303;28;20406;-76
2023/12/16 09:48:15;;;;;;;1999.90;999.90;;;9.10;99.90;;;;;;5052904;28;20435;-74
2023/12/16 09:50:43;;;;;;;1999.90;999.90;;;9.20;99.90;;;;;;5054217;28;20409;-76
2023/12/16 09:53:11;;;;;;;1999.90;999.90;;;9.30;99.90;;;;;;5054590;28;20468;-76
2023/12/16 09:55:38;;;;;;;1999.90;999.90;;;9.30;99.90;;;;;;5055020;28;20782;-76
2023/12/16 09:58:06;;;;;;;1999.90;999.90;;;9.20;99.90;;;;;;5055200;28;20409;-75
2023/12/16 10:00:33;;;;;;;1999.90;999.90;;;9.20;99.90;;;;;;5053670;28;20434;-76
2023/12/16 10:03:01;;;;;;;1999.90;999.90;;;9.20;99.90;;;;;;5044724;28;20437;-77
2023/12/16 10:05:29;;;;;;;1999.90;999.90;;;9.20;99.90;;;;;;5054915;28;20783;-76
2023/12/16 10:08:04;;;;;;;1999.90;999.90;;;9.30;99.90;;;;;;5055356;28;20950;-77
2023/12/16 10:10:31;;;;;;;1999.90;999.90;;;9.40;99.90;;;;;;5057324;28;20443;-76
2023/12/16 10:13:01;;;;;;;1999.90;999.90;;;9.40;99.90;;;;;;5055402;28;20405;-76
2023/12/16 10:15:32;;;;;;;1999.90;999.90;;;9.40;99.90;;;;;;5056003;28;20787;-76
2023/12/16 10:18:02;;;;;;;1999.90;999.90;;;9.30;99.90;;;;;;5049311;28;20532;-77
2023/12/16 10:20:29;;;;;;;1999.90;999.90;;;9.30;99.90;;;;;;5055036;28;20429;-76
2023/12/16 10:22:56;;;;;;;1999.90;999.90;;;9.40;99.90;;;;;;5052984;28;20428;-76
2023/12/16 10:25:24;;;;;;;1999.90;999.90;;;9.40;99.90;;;;;;5053140;28;20822;-77
2023/12/16 10:27:51;;;;;;;1999.90;999.90;;;9.40;99.90;;;;;;5052990;28;20487;-75
2023/12/16 10:30:18;;;;;;;1999.90;999.90;;;9.50;99.90;;;;;;5042667;28;20439;-74
2023/12/16 10:32:44;;;;;;;1999.90;999.90;;;9.60;99.90;;;;;;5052577;28;20413;-75
2023/12/16 10:35:11;;;;;;;1999.90;999.90;;;9.80;99.90;;;;;;5052631;28;20849;-75
2023/12/16 10:37:48;;;;;;;1999.90;999.90;;;9.90;99.90;;;;;;5052432;28;20895;-75
2023/12/16 10:40:16;;;;;;;1999.90;999.90;;;9.90;99.90;;;;;;5051600;28;20483;-74
2023/12/16 10:42:44;;;;;;;1999.90;999.90;;;10.10;99.90;;;;;;5044009;28;20413;-77
2023/12/16 10:45:12;;;;;;;1999.90;999.90;;;10.00;99.90;;;;;;5051794;28;20836;-77
2023/12/16 10:47:39;;;;;;;1999.90;999.90;;;9.90;99.90;;;;;;5054435;28;20467;-77
2023/12/16 10:50:07;;;;;;;1999.90;999.90;;;9.90;99.90;;;;;;5052736;28;20490;-77
2023/12/16 10:52:39;;;;;;;1999.90;999.90;;;9.90;99.90;;;;;;5052363;28;20761;-77
2023/12/16 10:55:13;;;;;;;1999.90;999.90;;;9.90;99.90;;;;;;5052255;28;20496;-77
2023/12/16 10:57:47;;;;;;;1999.90;999.90;;;10.00;99.90;;;;;;5050542;28;20421;-77
2023/12/16 11:00:19;;;;;;;1999.90;999.90;;;10.00;99.90;;;;;;5048378;28;20483;-75
2023/12/16 11:02:56;;;;;;;1999.90;999.90;;;10.10;99.90;;;;;;5057808;28;20427;-77
2023/12/16 11:05:29;;;;;;;1999.90;999.90;;;10.10;99.90;;;;;;5049314;28;20435;-76
2023/12/16 11:07:57;;;;;;;1999.90;999.90;;;10.30;99.90;;;;;;5051973;28;20417;-77
2023/12/16 11:10:24;;;;;;;1999.90;999.90;;;10.40;99.90;;;;;;5043791;28;20493;-77
2023/12/16 11:12:53;;;;;;;1999.90;999.90;;;10.50;99.90;;;;;;5050860;28;20421;-75
2023/12/16 11:15:21;;;;;;;1999.90;999.90;;;10.50;99.90;;;;;;5046592;28;20425;-75
2023/12/16 11:17:54;;;;;;;1999.90;999.90;;;10.60;99.90;;;;;;5043792;28;20530;-77
2023/12/16 11:20:23;;;;;;;1999.90;999.90;;;10.60;99.90;;;;;;5043014;28;20446;-72
2023/12/16 11:22:51;;;;;;;1999.90;999.90;;;10.60;99.90;;;;;;5052178;28;20468;-76
2023/12/16 11:25:19;;;;;;;1999.90;999.90;;;10.60;99.90;;;;;;5049722;28;21027;-74
2023/12/16 11:27:47;;;;;;;1999.90;999.90;;;10.60;99.90;;;;;;5051289;28;20965;-74
2023/12/16 11:30:16;;;;;;;1999.90;999.90;;;10.60;99.90;;;;;;5051122;28;20459;-77
2023/12/16 11:32:48;;;;;;;1999.90;999.90;;;10.40;99.90;;;;;;5046632;28;20816;-77
2023/12/16 11:35:15;;;;;;;1999.90;999.90;;;10.40;99.90;;;;;;5054019;28;20412;-77
2023/12/16 11:37:43;;;;;;;1999.90;999.90;;;10.40;99.90;;;;;;5051194;28;20409;-77
2023/12/16 11:40:40;;;;;;;1999.90;999.90;;;10.40;99.90;;;;;;5049050;28;20520;-75
2023/12/16 11:43:07;;;;;;;1999.90;999.90;;;10.50;99.90;;;;;;5048715;28;20488;-77
2023/12/16 11:45:39;;;;;;;1999.90;999.90;;;10.40;99.90;;;;;;5053142;28;20413;-76
2023/12/16 11:48:05;;;;;;;1999.90;999.90;;;10.30;99.90;;;;;;5053757;28;20417;-76
2023/12/16 11:50:34;;;;;;;1999.90;999.90;;;10.20;99.90;;;;;;5043373;28;20842;-76
2023/12/16 11:53:01;;;;;;;1999.90;999.90;;;10.20;99.90;;;;;;5051379;28;20417;-77
2023/12/16 11:55:27;;;;;;;1999.90;999.90;;;10.10;99.90;;;;;;5056459;28;20461;-75
2023/12/16 11:57:54;;;;;;;1999.90;999.90;;;10.10;99.90;;;;;;5045989;28;20440;-76
2023/12/16 12:00:22;;;;;;;1999.90;999.90;;;10.20;99.90;;;;;;5050565;28;20436;-76
2023/12/16 12:02:50;;;;;;;1999.90;999.90;;;10.20;99.90;;;;;;5048224;28;20851;-76
2023/12/16 12:05:18;;;;;;;1999.90;999.90;;;10.20;99.90;;;;;;5052474;28;20452;-72
2023/12/16 12:07:45;;;;;;;1999.90;999.90;;;10.30;99.90;;;;;;5053688;28;20815;-77